Terminal Aerodrome Forecast
Issued by NWS Charleston, WV

Current Version | Previous Version | Graphics & Text | Print | Product List | Glossary On
Versions: 1 2 3 4 5 6 7 8 9 10 11 12 13 14 15 16 17 18 19 20 21 22 23 24 25 26 27 28 29
000
FTUS41 KRLX 250200 AAA
TAFBKW
TAF AMD
KBKW 250235Z 2503/2524 09003KT P6SM BKN045
     FM250500 13007KT P6SM BKN040
     FM250800 14009G15KT P6SM BKN020
     FM251400 16010G16KT P6SM BKN015
     FM251800 19011G21KT P6SM BKN025=

USA.gov is the U.S. government's official web portal to all federal, state and local government web resources and services.